SWA3318 KMDW-KMKE
Flight info
| Callsign | SWA3318 |
|---|---|
| Flight time | 0h 18m |
| Altitude | 7000 |
| Route | RAYNR BRTMN TAAYZ |
| Aircraft | B737/M-SDE2E3GIJ4RWZ/LB1D1 |
Departure
| Time | 2026-04-15 03:25 |
|---|---|
| Airport | Chicago Midway International Airport (KMDW) |
Arrival
| Time | 2026-04-15 03:43 |
|---|---|
| Airport | General Mitchell International Airport (KMKE) |
| Time | Latitude | Longitude | Altitude | Speed | Heading |
|---|---|---|---|---|---|
| 2026-04-15 03:01 | 41.78756 | -87.74374 | 634 ft | 0 kts | 312° |
| 2026-04-15 03:18 | 41.78753 | -87.74369 | 628 ft | 4 kts | 312° |
| 2026-04-15 03:18 | 41.78734 | -87.74342 | 636 ft | 4 kts | 313° |
| 2026-04-15 03:18 | 41.78720 | -87.74322 | 628 ft | 0 kts | 313° |
| 2026-04-15 03:20 | 41.78720 | -87.74328 | 628 ft | 1 kts | 268° |
| 2026-04-15 03:20 | 41.78695 | -87.74353 | 628 ft | 9 kts | 217° |
| 2026-04-15 03:20 | 41.78638 | -87.74422 | 634 ft | 11 kts | 223° |
| 2026-04-15 03:21 | 41.78581 | -87.74493 | 632 ft | 11 kts | 223° |
| 2026-04-15 03:21 | 41.78501 | -87.74648 | 628 ft | 10 kts | 288° |
| 2026-04-15 03:21 | 41.78552 | -87.74714 | 628 ft | 10 kts | 316° |
| 2026-04-15 03:22 | 41.78603 | -87.74779 | 628 ft | 10 kts | 320° |
| 2026-04-15 03:22 | 41.78677 | -87.74786 | 628 ft | 12 kts | 8° |
| 2026-04-15 03:22 | 41.78744 | -87.74725 | 630 ft | 12 kts | 44° |
| 2026-04-15 03:22 | 41.78802 | -87.74652 | 628 ft | 11 kts | 43° |
| 2026-04-15 03:23 | 41.78859 | -87.74581 | 631 ft | 11 kts | 43° |
| 2026-04-15 03:23 | 41.78914 | -87.74511 | 631 ft | 11 kts | 43° |
| 2026-04-15 03:23 | 41.78967 | -87.74444 | 629 ft | 10 kts | 43° |
| 2026-04-15 03:23 | 41.79019 | -87.74378 | 629 ft | 10 kts | 43° |
| 2026-04-15 03:24 | 41.79069 | -87.74314 | 630 ft | 10 kts | 43° |
| 2026-04-15 03:24 | 41.79122 | -87.74260 | 633 ft | 10 kts | 17° |
| 2026-04-15 03:24 | 41.79178 | -87.74295 | 629 ft | 9 kts | 305° |
| 2026-04-15 03:24 | 41.79168 | -87.74347 | 629 ft | 2 kts | 223° |
| 2026-04-15 03:25 | 41.79137 | -87.74388 | 630 ft | 24 kts | 224° |
| 2026-04-15 03:25 | 41.78806 | -87.74804 | 631 ft | 105 kts | 224° |
| 2026-04-15 03:25 | 41.78132 | -87.75677 | 831 ft | 151 kts | 223° |
| 2026-04-15 03:25 | 41.77384 | -87.76644 | 1696 ft | 148 kts | 224° |
| 2026-04-15 03:26 | 41.76915 | -87.77856 | 2463 ft | 162 kts | 268° |
| 2026-04-15 03:26 | 41.77346 | -87.79421 | 2865 ft | 204 kts | 304° |
| 2026-04-15 03:26 | 41.78623 | -87.80628 | 3147 ft | 253 kts | 336° |
| 2026-04-15 03:26 | 41.80463 | -87.80888 | 3904 ft | 274 kts | 352° |
| 2026-04-15 03:27 | 41.82396 | -87.80908 | 5049 ft | 278 kts | 352° |
| 2026-04-15 03:27 | 41.84329 | -87.80904 | 6285 ft | 277 kts | 352° |
| 2026-04-15 03:27 | 41.86280 | -87.80916 | 6791 ft | 282 kts | 352° |
| 2026-04-15 03:27 | 41.88244 | -87.80947 | 6998 ft | 284 kts | 351° |
| 2026-04-15 03:28 | 41.90225 | -87.80993 | 7055 ft | 284 kts | 351° |
| 2026-04-15 03:28 | 41.92201 | -87.81049 | 7066 ft | 282 kts | 351° |
| 2026-04-15 03:28 | 41.94162 | -87.81112 | 7068 ft | 281 kts | 350° |
| 2026-04-15 03:28 | 41.96117 | -87.81182 | 7068 ft | 281 kts | 350° |
| 2026-04-15 03:29 | 41.98064 | -87.81255 | 7075 ft | 280 kts | 350° |
| 2026-04-15 03:29 | 42.00009 | -87.81331 | 7071 ft | 280 kts | 350° |
| 2026-04-15 03:29 | 42.01952 | -87.81407 | 7079 ft | 279 kts | 350° |
| 2026-04-15 03:29 | 42.03893 | -87.81486 | 7062 ft | 279 kts | 350° |
| 2026-04-15 03:30 | 42.05835 | -87.81564 | 7049 ft | 279 kts | 350° |
| 2026-04-15 03:30 | 42.07779 | -87.81643 | 7058 ft | 279 kts | 350° |
| 2026-04-15 03:30 | 42.09722 | -87.81723 | 7066 ft | 279 kts | 350° |
| 2026-04-15 03:30 | 42.11667 | -87.81803 | 7064 ft | 280 kts | 349° |
| 2026-04-15 03:31 | 42.13618 | -87.81883 | 7068 ft | 281 kts | 349° |
| 2026-04-15 03:31 | 42.15578 | -87.81963 | 7059 ft | 282 kts | 350° |
| 2026-04-15 03:31 | 42.17542 | -87.82044 | 7049 ft | 283 kts | 350° |
| 2026-04-15 03:31 | 42.19506 | -87.82124 | 7009 ft | 282 kts | 350° |
| 2026-04-15 03:32 | 42.21474 | -87.82205 | 7000 ft | 282 kts | 350° |
| 2026-04-15 03:32 | 42.23431 | -87.82284 | 7004 ft | 282 kts | 350° |
| 2026-04-15 03:32 | 42.25391 | -87.82365 | 7001 ft | 281 kts | 350° |
| 2026-04-15 03:32 | 42.27338 | -87.82444 | 7007 ft | 279 kts | 350° |
| 2026-04-15 03:33 | 42.29276 | -87.82523 | 7006 ft | 278 kts | 350° |
| 2026-04-15 03:33 | 42.31189 | -87.82587 | 7012 ft | 279 kts | 353° |
| 2026-04-15 03:33 | 42.33138 | -87.82419 | 7019 ft | 281 kts | 358° |
| 2026-04-15 03:33 | 42.35111 | -87.82148 | 7023 ft | 281 kts | 358° |
| 2026-04-15 03:34 | 42.37063 | -87.81869 | 7016 ft | 282 kts | 358° |
| 2026-04-15 03:34 | 42.38982 | -87.81602 | 7026 ft | 282 kts | 358° |
| 2026-04-15 03:34 | 42.40933 | -87.81340 | 7023 ft | 282 kts | 358° |
| 2026-04-15 03:34 | 42.42894 | -87.81084 | 7031 ft | 283 kts | 358° |
| 2026-04-15 03:35 | 42.44864 | -87.80829 | 7020 ft | 285 kts | 358° |
| 2026-04-15 03:35 | 42.46815 | -87.80807 | 7004 ft | 274 kts | 340° |
| 2026-04-15 03:35 | 42.48607 | -87.81541 | 7024 ft | 269 kts | 334° |
| 2026-04-15 03:35 | 42.50380 | -87.82363 | 7023 ft | 270 kts | 333° |
| 2026-04-15 03:36 | 42.52158 | -87.83193 | 7025 ft | 270 kts | 333° |
| 2026-04-15 03:36 | 42.53928 | -87.84011 | 6835 ft | 267 kts | 333° |
| 2026-04-15 03:36 | 42.55649 | -87.84797 | 6693 ft | 254 kts | 333° |
| 2026-04-15 03:36 | 42.57297 | -87.85545 | 6384 ft | 245 kts | 333° |
| 2026-04-15 03:37 | 42.58880 | -87.86263 | 6114 ft | 235 kts | 332° |
| 2026-04-15 03:37 | 42.60393 | -87.86950 | 5843 ft | 225 kts | 332° |
| 2026-04-15 03:37 | 42.61868 | -87.87622 | 5543 ft | 221 kts | 333° |
| 2026-04-15 03:37 | 42.63319 | -87.88285 | 5254 ft | 220 kts | 332° |
| 2026-04-15 03:38 | 42.64770 | -87.88948 | 4958 ft | 220 kts | 332° |
| 2026-04-15 03:38 | 42.66216 | -87.89607 | 4690 ft | 218 kts | 333° |
| 2026-04-15 03:38 | 42.67633 | -87.90249 | 4566 ft | 213 kts | 333° |
| 2026-04-15 03:38 | 42.69045 | -87.90893 | 4472 ft | 216 kts | 333° |
| 2026-04-15 03:39 | 42.70485 | -87.91551 | 4408 ft | 220 kts | 333° |
| 2026-04-15 03:39 | 42.71945 | -87.92216 | 4298 ft | 222 kts | 334° |
| 2026-04-15 03:39 | 42.73419 | -87.92870 | 4213 ft | 225 kts | 338° |
| 2026-04-15 03:39 | 42.75019 | -87.92911 | 4100 ft | 238 kts | 360° |
| 2026-04-15 03:40 | 42.76671 | -87.92604 | 3797 ft | 239 kts | 1° |
| 2026-04-15 03:40 | 42.78295 | -87.92302 | 3511 ft | 231 kts | 0° |
| 2026-04-15 03:40 | 42.79854 | -87.92022 | 3265 ft | 221 kts | 360° |
| 2026-04-15 03:40 | 42.81362 | -87.91766 | 2988 ft | 215 kts | 0° |
| 2026-04-15 03:41 | 42.82823 | -87.91517 | 2724 ft | 209 kts | 1° |
| 2026-04-15 03:41 | 42.84226 | -87.91277 | 2445 ft | 204 kts | 1° |
| 2026-04-15 03:41 | 42.85654 | -87.91034 | 2191 ft | 205 kts | 2° |
| 2026-04-15 03:41 | 42.87026 | -87.90797 | 1918 ft | 194 kts | 3° |
| 2026-04-15 03:42 | 42.88304 | -87.90576 | 1714 ft | 175 kts | 2° |
| 2026-04-15 03:42 | 42.89446 | -87.90382 | 1440 ft | 159 kts | 3° |
| 2026-04-15 03:42 | 42.90520 | -87.90200 | 1250 ft | 149 kts | 4° |
| 2026-04-15 03:42 | 42.91535 | -87.90027 | 1046 ft | 144 kts | 6° |
| 2026-04-15 03:43 | 42.92530 | -87.89852 | 846 ft | 144 kts | 7° |
| 2026-04-15 03:43 | 42.93526 | -87.89682 | 690 ft | 138 kts | 7° |
| 2026-04-15 03:43 | 42.94315 | -87.89549 | 681 ft | 85 kts | 8° |
| 2026-04-15 03:43 | 42.94680 | -87.89504 | 683 ft | 32 kts | 348° |
| 2026-04-15 03:44 | 42.94834 | -87.89578 | 681 ft | 15 kts | 339° |
| 2026-04-15 03:44 | 42.94933 | -87.89599 | 683 ft | 14 kts | 355° |
| 2026-04-15 03:44 | 42.94970 | -87.89702 | 687 ft | 14 kts | 266° |
| 2026-04-15 03:44 | 42.95013 | -87.89801 | 680 ft | 13 kts | 339° |
| 2026-04-15 03:45 | 42.95087 | -87.89865 | 685 ft | 13 kts | 314° |
| 2026-04-15 03:45 | 42.95142 | -87.89953 | 683 ft | 9 kts | 311° |
| 2026-04-15 03:45 | 42.95168 | -87.90009 | 681 ft | 5 kts | 270° |
| 2026-04-15 03:45 | 42.95159 | -87.90052 | 685 ft | 5 kts | 223° |
| 2026-04-15 03:46 | 42.95129 | -87.90068 | 687 ft | 4 kts | 192° |
| 2026-04-15 03:46 | 42.95125 | -87.90069 | 684 ft | 0 kts | 192° |
| 2026-04-15 03:49 | 41.78063 | -87.75380 | 636 ft | 0 kts | 0° |
| 2026-04-15 03:50 | 41.78874 | -87.74456 | 629 ft | 0 kts | 311° |
| 2026-04-15 03:50 | 41.78562 | -87.74642 | 629 ft | 0 kts | 16° |
| 2026-04-15 03:50 | 41.78629 | -87.74619 | 629 ft | 0 kts | 232° |
| 2026-04-15 03:51 | 41.78633 | -87.74611 | 628 ft | 0 kts | 249° |
| 2026-04-15 03:51 | 41.78635 | -87.74607 | 629 ft | 0 kts | 28° |
| 2026-04-15 03:51 | 41.78633 | -87.74611 | 628 ft | 0 kts | 249° |